METAR AND TAF INFORMATION
METAR FOR LEGR
ADDS - METARS form results

(1259 UTC 22 October 2020)
Data provider http://aviationweather.gov/metar/data/
 
METAR text: LEGR 221230Z 15007KT 9999 -RA BKN060 OVC070 16/14 Q1015
Conditions at: LEGR (GRANADA AIRPORT , ES) observed 1230 UTC 22 October 2020
Temperature: 16.0°C (61°F)
Dewpoint: 14.0°C (57°F) [RH = 88%]
Pressure (altimeter): 29.97 inches Hg (1015.0 mb)
Winds: from the SSE (150 degrees) at 8 MPH (7 knots; 3.6 m/s)
Visibility: 6 or more miles (10+ km)
Ceiling: 6000 feet AGL
Clouds: broken clouds at 6000 feet AGL
overcast cloud deck at 7000 feet AGL
Weather: -RA  (light rain)

METAR text: LEGR 221200Z 14004KT 100V190 8000 -RA OVC070 16/14 Q1016
Conditions at: LEGR (GRANADA AIRPORT , ES) observed 1200 UTC 22 October 2020
Temperature: 16.0°C (61°F)
Dewpoint: 14.0°C (57°F) [RH = 88%]
Pressure (altimeter): 30.00 inches Hg (1016.0 mb)
Winds: from the SE (140 degrees) at 5 MPH (4 knots; 2.1 m/s)
Visibility: 5 miles ( 8 km)
Ceiling: 7000 feet AGL
Clouds: overcast cloud deck at 7000 feet AGL
Weather: -RA  (light rain)

Forecast for: LEGR (GRANADA AIRPORT , ES)
Text: TAF LEGR 220800Z 2209/2309 18006KT 9999 SCT030 BKN070 TX18/2215Z TN08/2306Z
Forecast period: 0900 UTC 22 October 2020 to 0900 UTC 23 October 2020
Forecast type: FROM: standard forecast or significant change
Winds: from the S (180 degrees) at 7 MPH (6 knots; 3.1 m/s)
Visibility: 6 or more miles (10+ km)
Ceiling: 7000 feet AGL
Clouds: scattered clouds at 3000 feet AGL
broken clouds at 7000 feet AGL
Weather: no significant weather forecast for this period
Text: TEMPO 2209/2219 4000 RA BKN014
Forecast period: 0900 to 1900 UTC 22 October 2020
Forecast type: TEMPORARY: The following changes expected for less than half the time period
Visibility: 2.49 miles (4.01 km)
Ceiling: 1400 feet AGL
Clouds: broken clouds at 1400 feet AGL
Weather: RA  (moderate rain)

 AIRPORT MAP

 RUNWAY INFORMATION
Runway 09 Runway length 9514 ft Runway width 148 ft
Runway elevation 1842 ft Runway displaced threshold 0 ft Runway heading 90
Runway 27 Runway length 9514 ft Runway width 148 ft
Runway elevation 1860 ft Runway displaced threshold 0 ft Runway heading 270

 AIRPORT FREQUENCIES
Type GND Name GND Frequency 121.7 MHZ
Type TWR Name TWR Frequency 118.85 MHZ

 AIRPORT NEAR NAVIGATION AIDS
Type VOR-DME Name Granada Frequency 113400 KHZ



Powered by Virtual Airlines Manager [v2.6.2]